createdAt,value
2024-02-07T00:00:02.067Z,99425.19
2024-02-07T00:02:29.876Z,99430.03
2024-02-07T00:04:57.657Z,99415.84
2024-02-07T00:07:25.547Z,99428.34
2024-02-07T00:09:53.449Z,99405.94
2024-02-07T00:12:22.534Z,99420.13
2024-02-07T00:14:51.225Z,99426.91
2024-02-07T00:17:18.932Z,99405.09
2024-02-07T00:19:46.829Z,99375.72
2024-02-07T00:22:14.620Z,99374.47
2024-02-07T00:24:42.392Z,99373.91
2024-02-07T00:27:10.089Z,99374.75
2024-02-07T00:29:39.580Z,99384.78
2024-02-07T00:32:07.759Z,99375.88
2024-02-07T00:34:35.560Z,99369.75
2024-02-07T00:37:04.063Z,99371.34
2024-02-07T00:39:31.762Z,99363.53
2024-02-07T00:41:59.469Z,99373.03
2024-02-07T00:44:27.197Z,99378.16
2024-02-07T00:46:56.280Z,99369.94
2024-02-07T00:49:24.003Z,99371.06
2024-02-07T00:51:51.727Z,99362.84
2024-02-07T00:54:19.362Z,99354.50
2024-02-07T00:56:47.079Z,99355.06
2024-02-07T00:59:14.834Z,99349.53
2024-02-07T01:01:42.670Z,99349.69
2024-02-07T01:04:12.217Z,99325.16
2024-02-07T01:06:40.259Z,99341.59
2024-02-07T01:09:08.038Z,99340.75
2024-02-07T01:11:36.233Z,99337.91
2024-02-07T01:14:04.267Z,99339.34
2024-02-07T01:16:32.014Z,99343.91
2024-02-07T01:18:59.716Z,99330.28
2024-02-07T01:21:29.207Z,99321.94
2024-02-07T01:23:57.005Z,99332.00
2024-02-07T01:26:24.784Z,99321.81
2024-02-07T01:28:52.624Z,99313.88
2024-02-07T01:31:23.229Z,99318.41
2024-02-07T01:33:51.660Z,99334.81
2024-02-07T01:36:22.205Z,99328.31
2024-02-07T01:38:51.534Z,99343.63
2024-02-07T01:41:19.833Z,99323.91
2024-02-07T01:43:47.778Z,99311.03
2024-02-07T01:46:15.796Z,99338.97
2024-02-07T01:48:44.822Z,99345.91
2024-02-07T01:51:13.099Z,99331.72
2024-02-07T01:53:41.865Z,99333.31
2024-02-07T01:56:11.236Z,99310.91
2024-02-07T01:58:39.138Z,99336.25
2024-02-07T02:01:06.992Z,99338.81
2024-02-07T02:03:34.830Z,99353.41
2024-02-07T02:06:02.772Z,99334.69
2024-02-07T02:08:30.488Z,99302.09
2024-02-07T02:11:05.523Z,99334.56
2024-02-07T02:13:34.748Z,99327.59
2024-02-07T02:16:02.764Z,99326.03
2024-02-07T02:18:31.717Z,99313.28
2024-02-07T02:21:01.518Z,99319.53
2024-02-07T02:23:45.146Z,99334.69
2024-02-07T02:26:36.511Z,99348.16
2024-02-07T02:29:16.398Z,99361.75
2024-02-07T02:31:48.761Z,99366.13
2024-02-07T02:34:17.134Z,99335.78
2024-02-07T02:36:45.391Z,99396.69
2024-02-07T02:39:12.152Z,99382.19
2024-02-07T02:41:39.819Z,99366.25
2024-02-07T02:44:07.577Z,99389.03
2024-02-07T02:46:36.929Z,99349.63
2024-02-07T02:49:04.619Z,99362.13
2024-02-07T02:51:33.056Z,99325.41
2024-02-07T02:54:01.084Z,99362.06
2024-02-07T02:56:28.912Z,99278.50
2024-02-07T02:58:57.446Z,99371.69
2024-02-07T03:01:26.055Z,99312.56
2024-02-07T03:03:55.968Z,99366.69
2024-02-07T03:06:31.132Z,99357.72
2024-02-07T03:09:08.701Z,99392.50
2024-02-07T03:11:36.792Z,99304.47
2024-02-07T03:14:07.172Z,99350.75
2024-02-07T03:16:35.470Z,99365.53
2024-02-07T03:19:05.241Z,99383.09
2024-02-07T03:21:33.055Z,99377.53
2024-02-07T03:24:00.762Z,99367.91
2024-02-07T03:26:28.405Z,99365.06
2024-02-07T03:28:56.111Z,99379.75
2024-02-07T03:31:23.866Z,99381.34
2024-02-07T03:33:51.603Z,99370.53
2024-02-07T03:36:22.735Z,99370.22
2024-02-07T03:38:50.459Z,99380.19
2024-02-07T03:41:18.173Z,99384.50
2024-02-07T03:43:46.087Z,99397.00
2024-02-07T03:46:16.145Z,99388.97
2024-02-07T03:48:44.349Z,99399.16
2024-02-07T03:51:16.691Z,99399.78
2024-02-07T03:53:46.549Z,99405.47
2024-02-07T03:56:14.259Z,99408.47
2024-02-07T03:58:42.695Z,99406.28
2024-02-07T04:01:11.990Z,99409.41
2024-02-07T04:03:40.540Z,99410.22
2024-02-07T04:06:08.386Z,99411.63
2024-02-07T04:08:40.690Z,99422.84
2024-02-07T04:11:17.133Z,99433.97
2024-02-07T04:13:44.255Z,99440.59
2024-02-07T04:16:29.740Z,99438.03
2024-02-07T04:19:15.409Z,99440.47
2024-02-07T04:22:00.561Z,99429.59
2024-02-07T04:24:45.807Z,99438.75
2024-02-07T04:27:32.440Z,99437.59
2024-02-07T04:30:19.893Z,99440.06
2024-02-07T04:33:05.610Z,99446.91
2024-02-07T04:35:51.138Z,99459.31
2024-02-07T04:38:37.314Z,99448.59
2024-02-07T04:41:23.537Z,99463.59
2024-02-07T04:44:10.273Z,99461.34
2024-02-07T04:46:55.586Z,99472.03
2024-02-07T04:49:41.192Z,99470.00
2024-02-07T04:52:26.308Z,99473.53
2024-02-07T04:55:11.679Z,99475.03
2024-02-07T04:57:56.814Z,99477.41
2024-02-07T05:00:43.427Z,99481.34
2024-02-07T05:03:28.914Z,99481.78
2024-02-07T05:06:14.323Z,99488.28
2024-02-07T05:08:59.709Z,99489.47
2024-02-07T05:11:45.116Z,99493.41
2024-02-07T05:14:30.540Z,99487.31
2024-02-07T05:16:59.549Z,99494.28
2024-02-07T05:19:27.409Z,99517.38
2024-02-07T05:21:55.224Z,99521.19
2024-02-07T05:24:23.280Z,99519.19
2024-02-07T05:26:51.016Z,99524.41
2024-02-07T05:29:18.744Z,99533.72
2024-02-07T05:31:47.892Z,99534.91
2024-02-07T05:34:19.032Z,99535.31
2024-02-07T05:36:47.909Z,99545.13
2024-02-07T05:39:15.629Z,99539.88
2024-02-07T05:41:44.868Z,99543.41
2024-02-07T05:44:12.544Z,99536.09
2024-02-07T05:46:42.446Z,99536.69
2024-02-07T05:49:10.276Z,99542.13
2024-02-07T05:51:40.701Z,99542.03
2024-02-07T05:54:08.983Z,99553.97
2024-02-07T05:56:36.866Z,99542.53
2024-02-07T05:59:04.637Z,99539.19
2024-02-07T06:01:32.418Z,99549.56
2024-02-07T06:04:00.222Z,99538.63
2024-02-07T06:06:31.045Z,99549.41
2024-02-07T06:09:00.597Z,99542.16
2024-02-07T06:11:32.753Z,99542.16
2024-02-07T06:14:00.849Z,99538.16
2024-02-07T06:16:28.604Z,99558.13
2024-02-07T06:18:56.501Z,99557.38
2024-02-07T06:21:24.251Z,99565.56
2024-02-07T06:23:52.010Z,99565.66
2024-02-07T06:26:21.045Z,99559.44
2024-02-07T06:28:48.863Z,99556.94
2024-02-07T06:31:16.607Z,99557.59
2024-02-07T06:33:44.455Z,99568.56
2024-02-07T06:36:12.614Z,99560.53
2024-02-07T06:38:40.289Z,99568.81
2024-02-07T06:41:07.976Z,99556.41
2024-02-07T06:43:37.054Z,99563.91
2024-02-07T06:46:05.232Z,99564.03
2024-02-07T06:48:32.977Z,99555.34
2024-02-07T06:51:00.782Z,99556.56
2024-02-07T06:53:28.419Z,99555.69
2024-02-07T06:55:59.806Z,99556.81
2024-02-07T06:58:30.258Z,99566.44
2024-02-07T07:01:00.595Z,99565.50
2024-02-07T07:03:28.454Z,99569.16
2024-02-07T07:05:56.178Z,99568.94
2024-02-07T07:08:23.949Z,99562.75
2024-02-07T07:10:51.626Z,99563.50
2024-02-07T07:13:19.440Z,99566.53
2024-02-07T07:15:47.133Z,99573.09
2024-02-07T07:18:16.332Z,99575.44
2024-02-07T07:20:44.468Z,99582.72
2024-02-07T07:23:16.121Z,99585.19
2024-02-07T07:25:46.152Z,99581.31
2024-02-07T07:28:14.126Z,99588.69
2024-02-07T07:30:41.805Z,99598.56
2024-02-07T07:33:09.599Z,99596.16
2024-02-07T07:35:38.844Z,99600.09
2024-02-07T07:38:10.326Z,99590.72
2024-02-07T07:40:39.612Z,99592.06
2024-02-07T07:43:07.488Z,99609.91
2024-02-07T07:45:35.198Z,99606.47
2024-02-07T07:48:02.901Z,99613.94
2024-02-07T07:50:30.632Z,99613.59
2024-02-07T07:52:59.768Z,99625.59
2024-02-07T07:55:27.644Z,99625.84
2024-02-07T07:57:55.416Z,99613.47
2024-02-07T08:00:23.219Z,99607.69
2024-02-07T08:02:50.889Z,99610.00
2024-02-07T08:05:18.651Z,99611.63
2024-02-07T08:07:46.565Z,99625.25
2024-02-07T08:10:15.814Z,99623.78
2024-02-07T08:12:43.728Z,99620.78
2024-02-07T08:15:11.633Z,99624.22
2024-02-07T08:17:39.352Z,99628.94
2024-02-07T08:20:08.098Z,99636.00
2024-02-07T08:22:35.879Z,99639.34
2024-02-07T08:25:03.619Z,99622.25
2024-02-07T08:27:33.112Z,99619.41
2024-02-07T08:30:00.914Z,99623.03
2024-02-07T08:32:28.649Z,99624.66
2024-02-07T08:34:56.710Z,99615.53
2024-02-07T08:37:27.688Z,99612.28
2024-02-07T08:39:55.715Z,99613.44
2024-02-07T08:42:23.474Z,99616.47
2024-02-07T08:44:52.525Z,99616.75
2024-02-07T08:47:20.171Z,99630.41
2024-02-07T08:49:47.928Z,99645.66
2024-02-07T08:52:15.719Z,99649.25
2024-02-07T08:54:43.486Z,99642.22
2024-02-07T08:57:11.541Z,99664.25
2024-02-07T08:59:39.217Z,99664.25
2024-02-07T09:02:09.206Z,99671.13
2024-02-07T09:04:37.390Z,99587.38
2024-02-07T09:07:05.523Z,99657.09
2024-02-07T09:09:33.209Z,99660.34
2024-02-07T09:12:00.895Z,99659.19
2024-02-07T09:14:28.548Z,99664.06
2024-02-07T09:16:56.299Z,99673.22
2024-02-07T09:19:25.481Z,99670.44
2024-02-07T09:21:53.220Z,99680.53
2024-02-07T09:24:20.904Z,99680.00
2024-02-07T09:26:48.594Z,99687.06
2024-02-07T09:29:16.397Z,99692.22
2024-02-07T09:31:44.990Z,99685.88
2024-02-07T09:34:12.902Z,99689.13
2024-02-07T09:36:42.174Z,99680.44
2024-02-07T09:39:09.992Z,99693.63
2024-02-07T09:41:42.720Z,99705.81
2024-02-07T09:44:16.184Z,99701.94
2024-02-07T09:46:46.122Z,99693.25
2024-02-07T09:49:15.936Z,99687.59
2024-02-07T09:51:45.378Z,99683.69
2024-02-07T09:54:14.481Z,99672.00
2024-02-07T09:56:42.509Z,99681.31
2024-02-07T09:59:13.258Z,99702.03
2024-02-07T10:01:41.627Z,99693.94
2024-02-07T10:04:14.193Z,99707.28
2024-02-07T10:06:42.355Z,99708.81
2024-02-07T10:09:12.385Z,99705.38
2024-02-07T10:11:42.002Z,99703.00
2024-02-07T10:14:12.340Z,99704.16
2024-02-07T10:16:40.109Z,99691.84
2024-02-07T10:19:07.896Z,99687.28
2024-02-07T10:21:36.082Z,99676.28
2024-02-07T10:24:04.960Z,99682.13
2024-02-07T10:26:34.652Z,99692.03
2024-02-07T10:29:03.646Z,99695.88
2024-02-07T10:31:31.532Z,99707.41
2024-02-07T10:34:00.265Z,99663.03
2024-02-07T10:36:28.446Z,99694.78
2024-02-07T10:39:03.278Z,99715.78
2024-02-07T10:41:31.749Z,99706.56
2024-02-07T10:44:08.797Z,99698.50
2024-02-07T10:46:36.858Z,99730.78
2024-02-07T10:49:04.828Z,99712.75
2024-02-07T10:51:33.154Z,99706.75
2024-02-07T10:54:06.386Z,99708.06
2024-02-07T10:56:36.316Z,99719.69
2024-02-07T10:59:05.766Z,99718.66
2024-02-07T11:01:35.300Z,99712.53
2024-02-07T11:04:03.153Z,99708.91
2024-02-07T11:06:31.111Z,99704.81
2024-02-07T11:09:00.793Z,99662.25
2024-02-07T11:11:30.449Z,99688.13
2024-02-07T11:14:00.380Z,99687.47
2024-02-07T11:16:28.336Z,99655.69
2024-02-07T11:18:59.445Z,99678.81
2024-02-07T11:21:32.673Z,99632.16
2024-02-07T11:24:02.595Z,99657.53
2024-02-07T11:26:30.685Z,99659.91
2024-02-07T11:28:58.443Z,99678.09
2024-02-07T11:31:26.756Z,99683.56
2024-02-07T11:33:54.627Z,99674.38
2024-02-07T11:36:23.733Z,99686.03
2024-02-07T11:38:56.047Z,99662.66
2024-02-07T11:41:24.314Z,99673.09
2024-02-07T11:43:54.939Z,99669.47
2024-02-07T11:46:23.883Z,99687.34
2024-02-07T11:48:53.839Z,99683.22
2024-02-07T11:51:24.601Z,99689.81
2024-02-07T11:53:57.803Z,99687.66
2024-02-07T11:56:25.567Z,99679.50
2024-02-07T11:58:54.944Z,99667.19
2024-02-07T12:01:24.212Z,99663.19
2024-02-07T12:03:57.152Z,99647.25
2024-02-07T12:06:26.812Z,99649.81
2024-02-07T12:08:54.857Z,99651.97
2024-02-07T12:11:22.594Z,99651.19
2024-02-07T12:13:50.293Z,99648.66
2024-02-07T12:16:18.520Z,99640.22
2024-02-07T12:18:46.465Z,99643.31
2024-02-07T12:21:14.215Z,99640.97
2024-02-07T12:23:43.455Z,99636.94
2024-02-07T12:26:11.364Z,99648.34
2024-02-07T12:28:39.165Z,99635.81
2024-02-07T12:31:06.841Z,99638.38
2024-02-07T12:33:34.651Z,99632.38
2024-02-07T12:36:02.405Z,99608.78
2024-02-07T12:38:30.099Z,99619.50
2024-02-07T12:41:01.126Z,99634.94
2024-02-07T12:43:30.191Z,99643.56
2024-02-07T12:46:02.145Z,99647.75
2024-02-07T12:48:30.688Z,99650.78
2024-02-07T12:50:59.460Z,99660.47
2024-02-07T12:53:27.436Z,99670.88
2024-02-07T12:55:55.299Z,99670.38
2024-02-07T12:58:24.475Z,99612.97
2024-02-07T13:01:01.419Z,99666.44
2024-02-07T13:03:29.227Z,99651.75
2024-02-07T13:05:57.120Z,99657.31
2024-02-07T13:08:24.882Z,99656.75
2024-02-07T13:10:53.526Z,99655.47
2024-02-07T13:13:21.329Z,99638.38
2024-02-07T13:15:50.481Z,99648.66
2024-02-07T13:18:18.235Z,99650.03
2024-02-07T13:20:46.409Z,99653.38
2024-02-07T13:23:14.479Z,99653.47
2024-02-07T13:25:42.232Z,99650.91
2024-02-07T13:28:09.937Z,99652.09
2024-02-07T13:30:37.717Z,99652.00
2024-02-07T13:33:07.795Z,99651.06
2024-02-07T13:35:35.704Z,99654.75
2024-02-07T13:38:04.030Z,99650.44
2024-02-07T13:40:31.761Z,99641.00
2024-02-07T13:43:00.399Z,99639.94
2024-02-07T13:45:28.308Z,99641.25
2024-02-07T13:47:56.009Z,99635.88
2024-02-07T13:50:25.234Z,99592.78
2024-02-07T13:52:53.040Z,99631.75
2024-02-07T13:55:20.928Z,99634.88
2024-02-07T13:57:48.716Z,99635.97
2024-02-07T14:00:19.188Z,99622.16
2024-02-07T14:02:47.118Z,99631.06
2024-02-07T14:05:17.942Z,99627.09
2024-02-07T14:07:47.463Z,99627.66
2024-02-07T14:10:16.104Z,99623.97
2024-02-07T14:12:43.809Z,99618.50
2024-02-07T14:15:12.984Z,99632.75
2024-02-07T14:17:42.175Z,99611.63
2024-02-07T14:20:11.534Z,99618.91
2024-02-07T14:22:39.394Z,99620.63
2024-02-07T14:25:13.299Z,99623.81
2024-02-07T14:27:41.581Z,99620.59
2024-02-07T14:30:10.135Z,99628.78
2024-02-07T14:32:38.093Z,99614.75
2024-02-07T14:35:07.389Z,99631.69
2024-02-07T14:37:35.916Z,99610.06
2024-02-07T14:40:03.940Z,99604.72
2024-02-07T14:42:34.239Z,99600.72
2024-02-07T14:45:01.962Z,99603.06
2024-02-07T14:47:29.811Z,99602.97
2024-02-07T14:49:57.934Z,99588.28
2024-02-07T14:52:25.834Z,99594.94
2024-02-07T14:54:53.538Z,99594.50
2024-02-07T14:57:21.328Z,99596.31
2024-02-07T14:59:50.495Z,99595.81
2024-02-07T15:02:18.270Z,99601.81
2024-02-07T15:04:46.149Z,99592.16
2024-02-07T15:07:13.956Z,99588.91
2024-02-07T15:09:43.841Z,99602.66
2024-02-07T15:12:12.465Z,99591.19
2024-02-07T15:14:40.181Z,99595.44
2024-02-07T15:17:09.277Z,99586.66
2024-02-07T15:19:38.765Z,99588.69
2024-02-07T15:22:06.483Z,99590.19
2024-02-07T15:24:34.152Z,99574.88
2024-02-07T15:27:01.908Z,99573.28
2024-02-07T15:29:30.105Z,99569.44
2024-02-07T15:31:58.063Z,99570.72
2024-02-07T15:34:27.335Z,99581.81
2024-02-07T15:36:55.043Z,99549.47
2024-02-07T15:39:22.818Z,99557.19
2024-02-07T15:41:50.642Z,99557.38
2024-02-07T15:44:18.388Z,99576.66
2024-02-07T15:46:46.098Z,99569.34
2024-02-07T15:49:16.595Z,99568.59
2024-02-07T15:51:45.778Z,99573.13
2024-02-07T15:54:14.204Z,99573.00
2024-02-07T15:56:41.904Z,99566.41
2024-02-07T15:59:09.659Z,99557.53
2024-02-07T16:01:46.187Z,99577.63
2024-02-07T16:04:20.532Z,99559.13
2024-02-07T16:06:49.717Z,99565.31
2024-02-07T16:09:17.890Z,99556.91
2024-02-07T16:11:44.693Z,99554.88
2024-02-07T16:14:14.846Z,99550.59
2024-02-07T16:16:43.912Z,99540.78
2024-02-07T16:19:12.028Z,99545.28
2024-02-07T16:21:39.773Z,99545.59
2024-02-07T16:24:11.492Z,99547.94
2024-02-07T16:26:39.257Z,99548.03
2024-02-07T16:29:07.017Z,99549.00
2024-02-07T16:31:35.369Z,99550.28
2024-02-07T16:34:03.226Z,99535.88
2024-02-07T16:36:31.136Z,99537.88
2024-02-07T16:38:58.798Z,99539.41
2024-02-07T16:41:27.853Z,99540.84
2024-02-07T16:43:55.569Z,99549.63
2024-02-07T16:46:23.282Z,99541.50
2024-02-07T16:48:51.019Z,99547.59
2024-02-07T16:51:18.798Z,99549.72
2024-02-07T16:53:46.569Z,99553.44
2024-02-07T16:56:15.066Z,99560.00
2024-02-07T16:58:44.254Z,99548.19
2024-02-07T17:01:12.099Z,99543.75
2024-02-07T17:03:39.796Z,99552.19
2024-02-07T17:06:07.645Z,99546.22
2024-02-07T17:08:35.319Z,99546.50
2024-02-07T17:11:03.079Z,99548.81
2024-02-07T17:13:30.825Z,99510.41
2024-02-07T17:15:59.916Z,99535.25
2024-02-07T17:18:27.628Z,99529.72
2024-02-07T17:20:55.384Z,99524.97
2024-02-07T17:23:23.880Z,99518.56
2024-02-07T17:25:52.978Z,99533.94
2024-02-07T17:28:21.955Z,99523.53
2024-02-07T17:30:49.723Z,99527.91
2024-02-07T17:33:19.039Z,99514.47
2024-02-07T17:35:46.849Z,99530.59
2024-02-07T17:38:15.200Z,99527.91
2024-02-07T17:40:44.818Z,99533.44
2024-02-07T17:43:12.724Z,99526.69
2024-02-07T17:45:40.556Z,99531.16
2024-02-07T17:48:08.791Z,99525.81
2024-02-07T17:50:38.125Z,99519.81
2024-02-07T17:53:06.213Z,99530.03
2024-02-07T17:55:34.115Z,99531.56
2024-02-07T17:58:01.977Z,99529.94
2024-02-07T18:00:29.629Z,99531.09
2024-02-07T18:02:57.775Z,99526.53
2024-02-07T18:05:26.963Z,99517.19
2024-02-07T18:07:57.865Z,99522.81
2024-02-07T18:10:25.779Z,99526.44
2024-02-07T18:12:54.499Z,99523.00
2024-02-07T18:15:22.207Z,99518.69
2024-02-07T18:17:49.895Z,99521.00
2024-02-07T18:20:18.100Z,99519.28
2024-02-07T18:22:46.043Z,99510.31
2024-02-07T18:25:15.232Z,99508.13
2024-02-07T18:27:42.928Z,99511.75
2024-02-07T18:30:11.743Z,99509.75
2024-02-07T18:32:39.525Z,99507.25
2024-02-07T18:35:07.611Z,99510.97
2024-02-07T18:37:35.363Z,99510.13
2024-02-07T18:40:03.167Z,99515.66
2024-02-07T18:42:32.212Z,99519.94
2024-02-07T18:45:01.468Z,99501.19
2024-02-07T18:47:29.135Z,99512.22
2024-02-07T18:49:57.039Z,99507.44
2024-02-07T18:52:24.982Z,99509.34
2024-02-07T18:54:52.720Z,99516.03
2024-02-07T18:57:20.807Z,99500.78
2024-02-07T18:59:49.960Z,99497.16
2024-02-07T19:02:22.708Z,99502.69
2024-02-07T19:04:51.587Z,99491.91
2024-02-07T19:07:19.496Z,99490.88
2024-02-07T19:09:47.227Z,99492.78
2024-02-07T19:12:15.046Z,99481.03
2024-02-07T19:14:42.799Z,99476.75
2024-02-07T19:17:12.019Z,99480.47
2024-02-07T19:19:39.941Z,99483.13
2024-02-07T19:22:08.432Z,99472.47
2024-02-07T19:24:37.452Z,99467.91
2024-02-07T19:27:05.668Z,99422.69
2024-02-07T19:29:33.866Z,99469.78
2024-02-07T19:32:01.802Z,99469.94
2024-02-07T19:34:31.066Z,99473.53
2024-02-07T19:36:58.983Z,99465.72
2024-02-07T19:39:26.903Z,99466.88
2024-02-07T19:41:54.798Z,99465.25
2024-02-07T19:44:22.544Z,99472.22
2024-02-07T19:46:50.446Z,99476.78
2024-02-07T19:49:18.316Z,99474.59
2024-02-07T19:51:47.467Z,99471.53
2024-02-07T19:54:15.146Z,99476.31
2024-02-07T19:56:43.501Z,99479.81
2024-02-07T19:59:11.241Z,99455.28
2024-02-07T20:01:40.158Z,99466.50
2024-02-07T20:04:08.056Z,99467.53
2024-02-07T20:06:38.228Z,99463.28
2024-02-07T20:09:07.395Z,99472.41
2024-02-07T20:11:35.244Z,99471.06
2024-02-07T20:14:04.748Z,99469.00
2024-02-07T20:16:33.062Z,99454.88
2024-02-07T20:19:01.907Z,99462.50
2024-02-07T20:21:29.752Z,99469.19
2024-02-07T20:23:57.514Z,99455.19
2024-02-07T20:26:26.654Z,99451.06
2024-02-07T20:28:54.791Z,99452.00
2024-02-07T20:31:22.559Z,99448.94
2024-02-07T20:33:50.327Z,99434.66
2024-02-07T20:36:18.095Z,99436.38
2024-02-07T20:38:45.856Z,99407.00
2024-02-07T20:41:13.581Z,99441.16
2024-02-07T20:43:42.640Z,99443.72
2024-02-07T20:46:10.404Z,99440.50
2024-02-07T20:48:42.231Z,99445.69
2024-02-07T20:51:10.425Z,99434.84
2024-02-07T20:53:38.102Z,99436.25
2024-02-07T20:56:07.151Z,99428.50
2024-02-07T20:58:34.877Z,99430.25
2024-02-07T21:01:04.047Z,99428.06
2024-02-07T21:03:31.773Z,99418.88
2024-02-07T21:05:59.594Z,99413.13
2024-02-07T21:08:27.290Z,99425.09
2024-02-07T21:10:55.122Z,99423.03
2024-02-07T21:13:22.997Z,99408.94
2024-02-07T21:15:50.753Z,99420.44
2024-02-07T21:18:19.871Z,99423.13
2024-02-07T21:20:47.589Z,99419.53
2024-02-07T21:23:15.631Z,99415.91
2024-02-07T21:25:43.401Z,99407.00
2024-02-07T21:28:11.344Z,99405.78
2024-02-07T21:30:39.616Z,99415.88
2024-02-07T21:33:07.382Z,99408.75
2024-02-07T21:35:36.496Z,99411.09
2024-02-07T21:38:09.190Z,99287.38
2024-02-07T21:40:37.601Z,99415.09
2024-02-07T21:43:05.791Z,99418.44
2024-02-07T21:45:33.689Z,99415.78
2024-02-07T21:48:01.613Z,99424.69
2024-02-07T21:50:29.337Z,99424.53
2024-02-07T21:52:59.810Z,99420.63
2024-02-07T21:55:27.640Z,99429.38
2024-02-07T21:57:55.534Z,99431.22
2024-02-07T22:00:23.462Z,99428.66
2024-02-07T22:02:51.259Z,99419.16
2024-02-07T22:05:19.107Z,99432.50
2024-02-07T22:07:46.951Z,99436.50
2024-02-07T22:10:16.968Z,99434.16
2024-02-07T22:12:44.702Z,99430.59
2024-02-07T22:15:12.405Z,99428.06
2024-02-07T22:17:40.130Z,99426.81
2024-02-07T22:20:10.120Z,99426.28
2024-02-07T22:22:38.034Z,99432.91
2024-02-07T22:25:07.726Z,99425.41
2024-02-07T22:27:38.251Z,99426.19
2024-02-07T22:30:07.004Z,99420.72
2024-02-07T22:32:34.754Z,99420.28
2024-02-07T22:35:02.589Z,99426.03
2024-02-07T22:37:31.425Z,99427.44
2024-02-07T22:39:59.574Z,99424.00
2024-02-07T22:42:27.204Z,99420.78
2024-02-07T22:44:56.216Z,99421.28
2024-02-07T22:47:23.996Z,99421.56
2024-02-07T22:49:52.090Z,99415.97
2024-02-07T22:52:19.975Z,99412.34
2024-02-07T22:54:47.664Z,99423.50
2024-02-07T22:57:18.189Z,99421.88
2024-02-07T22:59:47.699Z,99419.03
2024-02-07T23:02:17.097Z,99417.97
2024-02-07T23:04:44.823Z,99416.31
2024-02-07T23:07:12.760Z,99416.38
2024-02-07T23:09:40.463Z,99402.69
2024-02-07T23:12:08.582Z,99414.63
2024-02-07T23:14:36.344Z,99409.41
2024-02-07T23:17:04.181Z,99409.75
2024-02-07T23:19:33.431Z,99401.09
2024-02-07T23:22:04.235Z,99408.97
2024-02-07T23:24:32.106Z,99406.06
2024-02-07T23:26:59.895Z,99400.44
2024-02-07T23:29:27.588Z,99402.38
2024-02-07T23:31:56.412Z,99394.59
2024-02-07T23:34:24.184Z,99405.72
2024-02-07T23:36:53.210Z,99406.59
2024-02-07T23:39:20.928Z,99399.44
2024-02-07T23:41:48.610Z,99402.09
2024-02-07T23:44:16.289Z,99401.81
2024-02-07T23:46:43.986Z,99415.13
2024-02-07T23:49:11.990Z,99385.41
2024-02-07T23:51:40.049Z,99407.69
2024-02-07T23:54:10.915Z,99402.31
2024-02-07T23:56:40.533Z,99406.38
2024-02-07T23:59:08.214Z,99416.06
